Whittlesey, Wisconsin
Current Conditions -  °F | °C
As of 4:15 AM on Thursday 23 Oct 2014 (Local Time) from KMDZ Reporting Station
Light Rain Light Rain  
Wind Chill: 37°   Ceiling: 9000
Heat Index: 41°   Visibility: 7mi
Dew Point: 38°   Wind: 6mph
Humidity: 88%   Direction: 150°SSE
Pressure: 30.1"   Gusts: NA
Location:  45.2044°N, 90.4212°W
Report Text: KMDZ 230915Z AUTO 15005KT 7SM -RA SCT034 SCT041 OVC090 05/03 A3010 RMK AO2 T00510033
Loading
Personal Weather Stations






























Interactive Weather Map
Tropical Storm Tracking
New forecast layout! Learn more

10-Day Weather Forecast

Advertisements
Track Severe Weather on mobile